createdAt,value
2022-09-24T00:01:22.155Z,7.20
2022-09-24T00:03:57.553Z,8.53
2022-09-24T00:06:24.193Z,7.60
2022-09-24T00:08:55.067Z,5.30
2022-09-24T00:11:23.947Z,5.00
2022-09-24T00:13:52.960Z,6.17
2022-09-24T00:16:21.529Z,6.67
2022-09-24T00:18:48.287Z,6.60
2022-09-24T00:21:21.196Z,5.23
2022-09-24T00:23:52.536Z,6.80
2022-09-24T00:26:38.447Z,6.77
2022-09-24T00:29:05.691Z,5.03
2022-09-24T00:31:32.782Z,5.93
2022-09-24T00:34:01.518Z,5.20
2022-09-24T00:36:28.285Z,7.67
2022-09-24T00:38:58.376Z,6.87
2022-09-24T00:41:28.569Z,6.13
2022-09-24T00:43:55.897Z,6.63
2022-09-24T00:46:32.546Z,7.57
2022-09-24T00:49:10.638Z,5.63
2022-09-24T00:51:38.036Z,8.37
2022-09-24T00:54:09.302Z,6.60
2022-09-24T00:56:39.351Z,5.83
2022-09-24T00:59:08.278Z,6.17
2022-09-24T01:01:34.937Z,8.07
2022-09-24T01:04:02.499Z,6.13
2022-09-24T01:06:29.134Z,6.87
2022-09-24T01:08:57.666Z,5.67
2022-09-24T01:11:36.267Z,6.13
2022-09-24T01:14:09.996Z,6.13
2022-09-24T01:17:01.659Z,7.67
2022-09-24T01:19:44.178Z,5.93
2022-09-24T01:22:32.871Z,7.80
2022-09-24T01:25:33.576Z,5.80
2022-09-24T01:28:23.111Z,6.50
2022-09-24T01:30:52.643Z,6.37
2022-09-24T01:33:22.722Z,6.43
2022-09-24T01:35:53.575Z,6.97
2022-09-24T01:38:24.032Z,6.40
2022-09-24T01:40:52.521Z,9.17
2022-09-24T01:43:24.236Z,7.10
2022-09-24T01:45:52.135Z,10.00
2022-09-24T01:48:21.839Z,6.50
2022-09-24T01:51:00.083Z,8.77
2022-09-24T01:53:33.787Z,7.27
2022-09-24T01:56:13.850Z,6.63
2022-09-24T01:58:49.766Z,7.70
2022-09-24T02:01:23.229Z,7.17
2022-09-24T02:03:56.837Z,5.83
2022-09-24T02:06:38.538Z,6.23
2022-09-24T02:09:05.169Z,7.10
2022-09-24T02:11:35.809Z,8.77
2022-09-24T02:14:14.147Z,7.43
2022-09-24T02:16:48.113Z,7.33
2022-09-24T02:19:20.191Z,7.90
2022-09-24T02:21:47.217Z,5.83
2022-09-24T02:24:18.339Z,7.57
2022-09-24T02:26:45.552Z,6.87
2022-09-24T02:29:12.717Z,5.60
2022-09-24T02:31:48.155Z,8.87
2022-09-24T02:34:22.376Z,7.00
2022-09-24T02:36:55.188Z,7.50
2022-09-24T02:39:22.010Z,6.10
2022-09-24T02:41:49.849Z,5.50
2022-09-24T02:44:17.168Z,6.17
2022-09-24T02:46:44.895Z,6.27
2022-09-24T02:49:12.622Z,8.10
2022-09-24T02:51:39.259Z,7.27
2022-09-24T02:54:06.250Z,7.60
2022-09-24T02:56:33.195Z,6.00
2022-09-24T02:59:02.117Z,6.30
2022-09-24T03:01:29.839Z,6.07
2022-09-24T03:03:57.319Z,5.83
2022-09-24T03:06:26.665Z,8.43
2022-09-24T03:08:53.882Z,8.53
2022-09-24T03:11:21.653Z,5.80
2022-09-24T03:13:48.921Z,6.00
2022-09-24T03:16:16.694Z,6.60
2022-09-24T03:18:43.664Z,5.93
2022-09-24T03:21:13.259Z,7.70
2022-09-24T03:23:40.573Z,8.47
2022-09-24T03:26:08.080Z,6.10
2022-09-24T03:28:34.935Z,6.47
2022-09-24T03:31:01.913Z,7.60
2022-09-24T03:33:47.096Z,6.33
2022-09-24T03:36:25.720Z,6.90
2022-09-24T03:38:55.335Z,7.30
2022-09-24T03:41:23.477Z,8.30
2022-09-24T03:43:50.298Z,6.20
2022-09-24T03:46:17.363Z,7.63
2022-09-24T03:48:44.040Z,8.87
2022-09-24T03:51:16.398Z,6.10
2022-09-24T03:53:43.008Z,10.73
2022-09-24T03:56:11.827Z,7.13
2022-09-24T03:58:39.327Z,8.50
2022-09-24T04:01:07.332Z,8.07
2022-09-24T04:03:34.306Z,6.87
2022-09-24T04:06:00.912Z,7.00
2022-09-24T04:08:27.484Z,8.73
2022-09-24T04:10:55.363Z,8.20
2022-09-24T04:13:21.964Z,6.90
2022-09-24T04:15:50.174Z,6.33
2022-09-24T04:18:17.241Z,9.67
2022-09-24T04:20:43.988Z,8.10
2022-09-24T04:23:11.370Z,8.13
2022-09-24T04:25:40.395Z,8.67
2022-09-24T04:28:08.204Z,7.70
2022-09-24T04:30:35.726Z,9.50
2022-09-24T04:33:02.965Z,6.90
2022-09-24T04:35:32.033Z,8.80
2022-09-24T04:37:59.300Z,7.33
2022-09-24T04:40:26.656Z,9.07
2022-09-24T04:42:53.639Z,6.80
2022-09-24T04:45:20.973Z,7.87
2022-09-24T04:47:58.508Z,8.13
2022-09-24T04:50:33.092Z,8.40
2022-09-24T04:53:00.658Z,9.63
2022-09-24T04:55:32.136Z,9.33
2022-09-24T04:57:58.982Z,8.13
2022-09-24T05:00:25.699Z,8.97
2022-09-24T05:02:59.585Z,10.00
2022-09-24T05:05:27.971Z,7.40
2022-09-24T05:07:56.778Z,8.80
2022-09-24T05:10:24.834Z,9.70
2022-09-24T05:12:51.826Z,6.93
2022-09-24T05:15:21.328Z,9.17
2022-09-24T05:17:48.188Z,8.50
2022-09-24T05:20:16.777Z,6.63
2022-09-24T05:22:44.897Z,7.33
2022-09-24T05:25:12.908Z,11.03
2022-09-24T05:27:51.844Z,7.13
2022-09-24T05:30:20.665Z,8.17
2022-09-24T05:32:52.076Z,9.00
2022-09-24T05:35:19.859Z,8.70
2022-09-24T05:37:49.016Z,8.60
2022-09-24T05:40:34.525Z,9.07
2022-09-24T05:43:02.065Z,6.77
2022-09-24T05:45:32.639Z,7.70
2022-09-24T05:48:00.030Z,7.13
2022-09-24T05:50:27.202Z,9.07
2022-09-24T05:52:53.794Z,6.13
2022-09-24T05:55:20.468Z,8.63
2022-09-24T05:57:47.017Z,7.00
2022-09-24T06:00:13.679Z,9.17
2022-09-24T06:02:40.319Z,8.00
2022-09-24T06:05:07.534Z,8.03
2022-09-24T06:07:34.160Z,10.93
2022-09-24T06:10:00.825Z,8.30
2022-09-24T06:12:27.832Z,8.17
2022-09-24T06:14:54.469Z,6.80
2022-09-24T06:17:21.474Z,8.73
2022-09-24T06:19:48.042Z,13.70
2022-09-24T06:22:14.827Z,6.87
2022-09-24T06:24:41.621Z,7.37
2022-09-24T06:27:08.234Z,7.00
2022-09-24T06:29:35.375Z,9.70
2022-09-24T06:32:02.153Z,7.87
2022-09-24T06:34:28.854Z,8.07
2022-09-24T06:36:55.681Z,7.30
2022-09-24T06:39:23.743Z,6.47
2022-09-24T06:41:52.047Z,9.03
2022-09-24T06:44:19.178Z,9.83
2022-09-24T06:46:45.862Z,8.73
2022-09-24T06:49:12.535Z,7.57
2022-09-24T06:51:39.635Z,8.17
2022-09-24T06:54:06.154Z,8.10
2022-09-24T06:56:32.759Z,7.77
2022-09-24T06:58:59.416Z,7.50
2022-09-24T07:01:26.129Z,7.13
2022-09-24T07:03:52.774Z,7.40
2022-09-24T07:06:19.335Z,7.63
2022-09-24T07:08:50.931Z,7.00
2022-09-24T07:11:17.484Z,8.10
2022-09-24T07:13:44.035Z,7.20
2022-09-24T07:16:10.688Z,8.30
2022-09-24T07:18:38.639Z,7.53
2022-09-24T07:21:05.415Z,6.77
2022-09-24T07:23:31.984Z,6.73
2022-09-24T07:25:58.558Z,7.40
2022-09-24T07:28:25.322Z,6.60
2022-09-24T07:30:59.657Z,9.77
2022-09-24T07:33:26.501Z,7.90
2022-09-24T07:35:53.117Z,7.93
2022-09-24T07:38:19.754Z,7.23
2022-09-24T07:40:46.689Z,9.60
2022-09-24T07:43:14.643Z,9.97
2022-09-24T07:45:42.394Z,7.83
2022-09-24T07:48:10.947Z,9.00
2022-09-24T07:50:42.559Z,8.00
2022-09-24T07:53:12.498Z,9.03
2022-09-24T07:55:40.918Z,8.47
2022-09-24T07:58:11.651Z,8.07
2022-09-24T08:00:38.266Z,7.60
2022-09-24T08:03:05.606Z,7.80
2022-09-24T08:05:33.113Z,7.80
2022-09-24T08:07:59.988Z,7.43
2022-09-24T08:10:28.461Z,8.00
2022-09-24T08:12:56.917Z,8.60
2022-09-24T08:15:23.743Z,8.20
2022-09-24T08:17:50.812Z,8.37
2022-09-24T08:20:17.660Z,9.70
2022-09-24T08:22:44.330Z,9.83
2022-09-24T08:25:11.039Z,8.83
2022-09-24T08:27:37.658Z,10.97
2022-09-24T08:30:05.590Z,9.70
2022-09-24T08:32:32.388Z,7.13
2022-09-24T08:34:59.409Z,7.53
2022-09-24T08:37:27.864Z,9.90
2022-09-24T08:39:54.579Z,8.17
2022-09-24T08:42:51.327Z,8.97
2022-09-24T08:45:37.082Z,7.67
2022-09-24T08:48:17.674Z,7.10
2022-09-24T08:50:58.106Z,7.83
2022-09-24T08:53:46.270Z,7.30
2022-09-24T08:56:13.574Z,8.50
2022-09-24T08:59:11.588Z,8.63
2022-09-24T09:02:13.364Z,7.73
2022-09-24T09:04:57.938Z,9.43
2022-09-24T09:07:31.392Z,7.97
2022-09-24T09:10:08.081Z,11.87
2022-09-24T09:12:42.158Z,8.33
2022-09-24T09:15:25.458Z,16.07
2022-09-24T09:18:01.304Z,10.63
2022-09-24T09:20:38.740Z,9.73
2022-09-24T09:23:26.146Z,9.73
2022-09-24T09:25:57.724Z,9.80
2022-09-24T09:28:26.646Z,7.10
2022-09-24T09:31:22.420Z,9.43
2022-09-24T09:34:30.315Z,8.97
2022-09-24T09:37:26.384Z,6.87
2022-09-24T09:40:26.582Z,8.83
2022-09-24T09:43:02.971Z,8.83
2022-09-24T09:45:59.236Z,8.90
2022-09-24T09:48:30.964Z,8.17
2022-09-24T09:51:04.932Z,7.50
2022-09-24T09:53:32.141Z,8.52
2022-09-24T09:56:04.454Z,9.88
2022-09-24T09:58:36.627Z,8.40
2022-09-24T10:01:15.566Z,9.32
2022-09-24T10:03:46.152Z,8.07
2022-09-24T10:06:22.276Z,9.00
2022-09-24T10:08:48.840Z,6.82
2022-09-24T10:11:17.295Z,8.10
2022-09-24T10:13:44.757Z,9.60
2022-09-24T10:16:15.793Z,7.28
2022-09-24T10:18:50.916Z,7.20
2022-09-24T10:21:37.224Z,6.40
2022-09-24T10:24:08.974Z,8.02
2022-09-24T10:26:45.264Z,9.38
2022-09-24T10:29:37.568Z,6.70
2022-09-24T10:32:05.531Z,6.45
2022-09-24T10:34:32.136Z,7.80
2022-09-24T10:37:03.501Z,9.65
2022-09-24T10:39:31.884Z,6.55
2022-09-24T10:41:58.475Z,6.68
2022-09-24T10:44:36.636Z,8.90
2022-09-24T10:47:15.339Z,8.60
2022-09-24T10:50:02.830Z,9.90
2022-09-24T10:52:42.155Z,7.63
2022-09-24T10:55:47.296Z,9.13
2022-09-24T10:58:40.142Z,7.30
2022-09-24T11:01:32.305Z,6.63
2022-09-24T11:04:24.779Z,6.38
2022-09-24T11:07:14.307Z,6.43
2022-09-24T11:10:16.336Z,6.65
2022-09-24T11:12:54.557Z,5.68
2022-09-24T11:15:58.768Z,7.10
2022-09-24T11:18:36.810Z,5.80
2022-09-24T11:21:21.221Z,6.55
2022-09-24T11:24:21.863Z,7.32
2022-09-24T11:26:56.912Z,6.65
2022-09-24T11:29:42.144Z,6.47
2022-09-24T11:32:23.161Z,8.85
2022-09-24T11:35:23.940Z,5.95
2022-09-24T11:38:01.355Z,6.28
2022-09-24T11:40:54.911Z,6.28
2022-09-24T11:43:50.512Z,6.78
2022-09-24T11:46:47.290Z,7.63
2022-09-24T11:49:33.808Z,5.57
2022-09-24T11:52:08.952Z,8.27
2022-09-24T11:54:57.024Z,5.15
2022-09-24T11:57:31.649Z,5.22
2022-09-24T12:00:20.153Z,10.00
2022-09-24T12:02:59.312Z,6.28
2022-09-24T12:05:37.033Z,5.78
2022-09-24T12:08:27.628Z,4.82
2022-09-24T12:11:02.187Z,5.35
2022-09-24T12:13:41.114Z,7.38
2022-09-24T12:16:17.783Z,5.82
2022-09-24T12:18:51.338Z,4.63
2022-09-24T12:21:26.569Z,7.18
2022-09-24T12:24:02.863Z,5.20
2022-09-24T12:26:31.289Z,4.80
2022-09-24T12:29:18.900Z,5.30
2022-09-24T12:32:40.797Z,5.60
2022-09-24T12:35:30.037Z,5.72
2022-09-24T12:38:05.852Z,5.63
2022-09-24T12:40:54.177Z,6.90
2022-09-24T12:43:31.479Z,6.85
2022-09-24T12:46:02.533Z,5.55
2022-09-24T12:48:34.701Z,7.85
2022-09-24T12:51:04.619Z,5.25
2022-09-24T12:53:37.737Z,5.85
2022-09-24T12:56:05.917Z,8.85
2022-09-24T12:58:46.388Z,7.05
2022-09-24T13:01:25.372Z,7.85
2022-09-24T13:04:28.404Z,4.95
2022-09-24T13:06:55.219Z,5.90
2022-09-24T13:09:39.869Z,4.50
2022-09-24T13:12:21.484Z,5.55
2022-09-24T13:15:04.188Z,5.63
2022-09-24T13:17:33.689Z,6.75
2022-09-24T13:20:06.321Z,6.07
2022-09-24T13:22:35.774Z,6.57
2022-09-24T13:25:19.964Z,5.15
2022-09-24T13:27:57.602Z,4.90
2022-09-24T13:30:30.410Z,6.65
2022-09-24T13:33:12.563Z,6.07
2022-09-24T13:35:48.286Z,7.05
2022-09-24T13:38:18.714Z,6.00
2022-09-24T13:40:53.871Z,5.70
2022-09-24T13:43:39.351Z,5.45
2022-09-24T13:46:12.092Z,4.85
2022-09-24T13:48:42.919Z,6.63
2022-09-24T13:51:12.982Z,5.05
2022-09-24T13:53:49.599Z,6.82
2022-09-24T13:56:19.067Z,5.32
2022-09-24T13:58:47.627Z,6.05
2022-09-24T14:01:25.440Z,7.95
2022-09-24T14:04:22.830Z,6.13
2022-09-24T14:06:54.843Z,5.75
2022-09-24T14:09:32.826Z,7.53
2022-09-24T14:12:15.080Z,4.97
2022-09-24T14:14:47.522Z,7.13
2022-09-24T14:17:15.429Z,5.50
2022-09-24T14:19:42.836Z,5.70
2022-09-24T14:22:21.383Z,5.38
2022-09-24T14:25:03.691Z,5.25
2022-09-24T14:27:32.267Z,4.35
2022-09-24T14:30:03.972Z,7.75
2022-09-24T14:32:42.442Z,5.78
2022-09-24T14:35:33.560Z,4.63
2022-09-24T14:38:11.745Z,8.57
2022-09-24T14:40:42.966Z,6.80
2022-09-24T14:43:18.426Z,5.18
2022-09-24T14:45:47.003Z,7.72
2022-09-24T14:48:31.191Z,8.32
2022-09-24T14:50:58.345Z,6.43
2022-09-24T14:53:34.531Z,5.93
2022-09-24T14:56:18.071Z,5.72
2022-09-24T14:58:44.923Z,5.57
2022-09-24T15:01:20.647Z,6.78
2022-09-24T15:03:56.514Z,5.78
2022-09-24T15:06:32.160Z,7.07
2022-09-24T15:09:03.646Z,5.75
2022-09-24T15:11:34.435Z,7.07
2022-09-24T15:14:02.979Z,5.63
2022-09-24T15:16:40.045Z,7.97
2022-09-24T15:19:06.679Z,5.57
2022-09-24T15:21:34.136Z,7.18
2022-09-24T15:24:00.966Z,6.22
2022-09-24T15:26:30.951Z,6.03
2022-09-24T15:28:58.868Z,6.05
2022-09-24T15:31:25.883Z,6.30
2022-09-24T15:33:53.071Z,6.07
2022-09-24T15:36:21.186Z,6.95
2022-09-24T15:38:49.324Z,7.10
2022-09-24T15:41:15.954Z,6.82
2022-09-24T15:43:42.677Z,7.55
2022-09-24T15:46:09.391Z,8.68
2022-09-24T15:48:36.354Z,7.93
2022-09-24T15:51:10.137Z,8.50
2022-09-24T15:53:38.424Z,9.55
2022-09-24T15:56:05.150Z,9.20
2022-09-24T15:58:31.698Z,7.70
2022-09-24T16:00:58.292Z,9.93
2022-09-24T16:03:27.459Z,8.20
2022-09-24T16:05:55.618Z,12.25
2022-09-24T16:08:22.964Z,9.48
2022-09-24T16:10:49.898Z,10.77
2022-09-24T16:13:17.606Z,10.40
2022-09-24T16:15:44.686Z,9.45
2022-09-24T16:18:15.884Z,9.93
2022-09-24T16:20:42.965Z,10.88
2022-09-24T16:23:14.244Z,10.95
2022-09-24T16:25:53.156Z,12.10
2022-09-24T16:28:19.683Z,8.73
2022-09-24T16:30:46.301Z,8.43
2022-09-24T16:33:13.246Z,12.27
2022-09-24T16:35:39.799Z,12.35
2022-09-24T16:38:06.363Z,11.43
2022-09-24T16:40:33.237Z,9.65
2022-09-24T16:42:59.962Z,13.75
2022-09-24T16:45:26.541Z,12.38
2022-09-24T16:47:53.143Z,12.48
2022-09-24T16:50:20.219Z,10.43
2022-09-24T16:52:49.069Z,10.02
2022-09-24T16:55:16.444Z,11.07
2022-09-24T16:57:43.050Z,9.00
2022-09-24T17:00:10.975Z,9.65
2022-09-24T17:02:37.807Z,12.02
2022-09-24T17:05:05.003Z,14.27
2022-09-24T17:07:32.420Z,14.02
2022-09-24T17:10:18.422Z,14.43
2022-09-24T17:12:48.294Z,17.15
2022-09-24T17:15:16.779Z,15.80
2022-09-24T17:17:49.606Z,14.77
2022-09-24T17:20:18.282Z,17.00
2022-09-24T17:22:45.539Z,15.83
2022-09-24T17:25:12.153Z,19.08
2022-09-24T17:27:40.074Z,17.08
2022-09-24T17:30:07.396Z,17.13
2022-09-24T17:32:33.966Z,19.97
2022-09-24T17:35:00.529Z,16.43
2022-09-24T17:37:27.470Z,14.87
2022-09-24T17:39:54.108Z,14.17
2022-09-24T17:42:20.724Z,14.70
2022-09-24T17:44:47.268Z,15.03
2022-09-24T17:47:13.816Z,15.43
2022-09-24T17:49:40.331Z,14.03
2022-09-24T17:52:06.994Z,15.43
2022-09-24T17:54:33.812Z,14.10
2022-09-24T17:57:01.903Z,12.00
2022-09-24T17:59:28.618Z,13.03
2022-09-24T18:01:55.181Z,14.80
2022-09-24T18:04:22.408Z,14.27
2022-09-24T18:06:49.955Z,15.67
2022-09-24T18:09:18.225Z,20.27
2022-09-24T18:11:47.878Z,13.10
2022-09-24T18:14:19.717Z,12.23
2022-09-24T18:16:46.351Z,12.97
2022-09-24T18:19:16.341Z,13.97
2022-09-24T18:21:44.152Z,17.93
2022-09-24T18:24:10.731Z,19.93
2022-09-24T18:26:39.787Z,14.63
2022-09-24T18:29:12.805Z,16.27
2022-09-24T18:31:40.061Z,15.57
2022-09-24T18:34:08.471Z,17.43
2022-09-24T18:36:40.118Z,15.13
2022-09-24T18:39:09.195Z,16.23
2022-09-24T18:41:36.984Z,12.90
2022-09-24T18:44:04.458Z,14.20
2022-09-24T18:46:32.372Z,11.93
2022-09-24T18:49:00.262Z,11.13
2022-09-24T18:51:28.236Z,11.97
2022-09-24T18:54:06.084Z,11.93
2022-09-24T18:56:33.194Z,13.27
2022-09-24T18:59:07.177Z,12.40
2022-09-24T19:01:36.834Z,12.20
2022-09-24T19:04:04.229Z,12.13
2022-09-24T19:06:33.512Z,14.53
2022-09-24T19:09:00.187Z,13.80
2022-09-24T19:11:28.035Z,14.30
2022-09-24T19:13:54.701Z,11.73
2022-09-24T19:16:25.779Z,11.70
2022-09-24T19:18:53.511Z,13.83
2022-09-24T19:21:21.533Z,11.57
2022-09-24T19:23:49.639Z,11.97
2022-09-24T19:26:19.745Z,11.13
2022-09-24T19:28:52.854Z,10.00
2022-09-24T19:31:25.174Z,11.40
2022-09-24T19:33:53.226Z,11.47
2022-09-24T19:36:21.387Z,12.37
2022-09-24T19:38:48.916Z,12.30
2022-09-24T19:41:21.106Z,13.83
2022-09-24T19:43:50.756Z,14.80
2022-09-24T19:46:18.629Z,13.20
2022-09-24T19:48:47.915Z,11.37
2022-09-24T19:51:16.819Z,11.57
2022-09-24T19:53:44.339Z,13.27
2022-09-24T19:56:16.184Z,10.50
2022-09-24T19:58:46.538Z,10.77
2022-09-24T20:01:17.089Z,10.70
2022-09-24T20:03:44.603Z,11.27
2022-09-24T20:06:17.226Z,12.20
2022-09-24T20:08:44.156Z,13.33
2022-09-24T20:11:15.006Z,12.80
2022-09-24T20:13:46.615Z,13.80
2022-09-24T20:16:15.815Z,14.03
2022-09-24T20:18:43.195Z,14.20
2022-09-24T20:21:12.611Z,14.40
2022-09-24T20:23:40.379Z,14.30
2022-09-24T20:26:26.037Z,14.77
2022-09-24T20:28:52.910Z,14.87
2022-09-24T20:31:20.967Z,14.60
2022-09-24T20:33:48.683Z,14.93
2022-09-24T20:36:18.802Z,14.80
2022-09-24T20:38:48.041Z,17.77
2022-09-24T20:41:16.845Z,15.80
2022-09-24T20:43:45.416Z,16.20
2022-09-24T20:46:16.669Z,15.03
2022-09-24T20:48:43.604Z,16.30
2022-09-24T20:51:12.309Z,17.47
2022-09-24T20:53:39.675Z,16.20
2022-09-24T20:56:06.608Z,15.57
2022-09-24T20:58:33.756Z,19.33
2022-09-24T21:01:00.618Z,17.57
2022-09-24T21:03:43.140Z,17.00
2022-09-24T21:06:12.200Z,16.53
2022-09-24T21:08:40.682Z,15.10
2022-09-24T21:11:10.448Z,17.60
2022-09-24T21:13:41.300Z,15.60
2022-09-24T21:16:09.398Z,15.00
2022-09-24T21:18:40.364Z,14.23
2022-09-24T21:21:11.531Z,15.27
2022-09-24T21:23:40.030Z,14.57
2022-09-24T21:26:15.961Z,14.97
2022-09-24T21:28:43.520Z,14.90
2022-09-24T21:31:10.206Z,15.77
2022-09-24T21:33:36.922Z,13.93
2022-09-24T21:36:05.427Z,13.97
2022-09-24T21:38:32.252Z,14.53
2022-09-24T21:41:00.893Z,14.33
2022-09-24T21:43:32.352Z,13.20
2022-09-24T21:46:04.410Z,14.63
2022-09-24T21:48:32.558Z,13.23
2022-09-24T21:51:04.525Z,13.40
2022-09-24T21:53:31.983Z,13.30
2022-09-24T21:55:58.589Z,13.20
2022-09-24T21:58:25.684Z,12.70
2022-09-24T22:00:52.356Z,12.90
2022-09-24T22:03:20.749Z,12.90
2022-09-24T22:05:48.225Z,13.43
2022-09-24T22:08:16.774Z,13.63
2022-09-24T22:10:44.051Z,14.20
2022-09-24T22:13:17.029Z,13.03
2022-09-24T22:15:44.800Z,13.37
2022-09-24T22:18:11.716Z,13.63
2022-09-24T22:20:42.993Z,13.60
2022-09-24T22:23:11.140Z,13.17
2022-09-24T22:25:38.535Z,12.70
2022-09-24T22:28:05.522Z,12.87
2022-09-24T22:30:32.198Z,13.00
2022-09-24T22:32:58.754Z,13.33
2022-09-24T22:35:44.271Z,13.43
2022-09-24T22:38:10.829Z,12.03
2022-09-24T22:40:37.471Z,13.50
2022-09-24T22:43:04.296Z,11.83
2022-09-24T22:45:30.830Z,12.80
2022-09-24T22:47:57.552Z,13.57
2022-09-24T22:50:24.119Z,13.80
2022-09-24T22:52:51.547Z,13.57
2022-09-24T22:55:18.371Z,15.03
2022-09-24T22:57:44.950Z,13.67
2022-09-24T23:00:12.913Z,13.60
2022-09-24T23:02:39.487Z,13.60
2022-09-24T23:05:06.446Z,13.27
2022-09-24T23:07:33.231Z,13.40
2022-09-24T23:09:59.827Z,12.73
2022-09-24T23:12:31.167Z,13.40
2022-09-24T23:14:58.558Z,13.60
2022-09-24T23:17:25.485Z,13.07
2022-09-24T23:19:52.735Z,12.53
2022-09-24T23:22:21.104Z,13.60
2022-09-24T23:24:50.427Z,13.57
2022-09-24T23:27:18.937Z,14.40
2022-09-24T23:29:46.237Z,15.17
2022-09-24T23:32:14.058Z,14.07
2022-09-24T23:34:41.159Z,13.87
2022-09-24T23:37:08.215Z,14.17
2022-09-24T23:39:34.758Z,13.93
2022-09-24T23:42:01.351Z,14.07
2022-09-24T23:44:27.940Z,14.13
2022-09-24T23:46:54.507Z,14.90
2022-09-24T23:49:21.028Z,14.60
2022-09-24T23:51:47.626Z,13.70
2022-09-24T23:54:14.243Z,13.40
2022-09-24T23:56:40.791Z,12.53
2022-09-24T23:59:07.483Z,14.53
